createdAt,value
2023-04-27T00:00:42.057Z,75.68
2023-04-27T00:01:42.535Z,75.47
2023-04-27T00:02:40.370Z,75.23
2023-04-27T00:03:40.425Z,75.13
2023-04-27T00:04:40.301Z,75.03
2023-04-27T00:05:40.177Z,75.05
2023-04-27T00:06:39.947Z,75.23
2023-04-27T00:07:40.084Z,75.27
2023-04-27T00:08:39.792Z,75.37
2023-04-27T00:09:39.950Z,75.38
2023-04-27T00:10:40.391Z,75.28
2023-04-27T00:11:39.428Z,75.24
2023-04-27T00:12:39.524Z,75.36
2023-04-27T00:13:39.304Z,75.40
2023-04-27T00:14:39.768Z,75.32
2023-04-27T00:15:40.406Z,75.31
2023-04-27T00:16:39.242Z,75.44
2023-04-27T00:17:39.524Z,75.48
2023-04-27T00:18:39.602Z,75.59
2023-04-27T00:19:39.893Z,75.46
2023-04-27T00:20:54.326Z,75.42
2023-04-27T00:21:39.273Z,75.43
2023-04-27T00:22:38.964Z,75.37
2023-04-27T00:23:39.824Z,75.19
2023-04-27T00:24:39.418Z,75.17
2023-04-27T00:25:39.278Z,75.22
2023-04-27T00:26:39.208Z,75.17
2023-04-27T00:27:39.598Z,75.15
2023-04-27T00:28:39.674Z,75.16
2023-04-27T00:29:39.555Z,75.23
2023-04-27T00:30:39.814Z,75.26
2023-04-27T00:31:40.011Z,75.23
2023-04-27T00:32:39.730Z,75.33
2023-04-27T00:33:39.703Z,75.48
2023-04-27T00:34:40.546Z,75.69
2023-04-27T00:35:39.912Z,75.81
2023-04-27T00:36:40.943Z,75.75
2023-04-27T00:37:40.645Z,75.70
2023-04-27T00:38:58.850Z,75.68
2023-04-27T00:39:39.848Z,75.71
2023-04-27T00:40:40.850Z,75.80
2023-04-27T00:41:40.280Z,75.92
2023-04-27T00:42:40.081Z,76.09
2023-04-27T00:43:39.207Z,76.13
2023-04-27T00:44:39.923Z,76.34
2023-04-27T00:45:39.284Z,76.32
2023-04-27T00:46:39.253Z,76.23
2023-04-27T00:47:39.483Z,76.15
2023-04-27T00:48:39.796Z,76.13
2023-04-27T00:49:39.860Z,76.17
2023-04-27T00:50:40.089Z,76.22
2023-04-27T00:51:39.597Z,76.26
2023-04-27T00:52:39.344Z,76.30
2023-04-27T00:53:39.868Z,76.29
2023-04-27T00:54:39.859Z,76.28
2023-04-27T00:55:39.965Z,76.22
2023-04-27T00:56:39.660Z,76.00
2023-04-27T00:57:40.001Z,76.09
2023-04-27T00:58:39.239Z,76.09
2023-04-27T00:59:38.881Z,76.12
2023-04-27T01:00:41.379Z,76.22
2023-04-27T01:01:39.525Z,76.14
2023-04-27T01:02:40.398Z,76.01
2023-04-27T01:03:39.855Z,75.98
2023-04-27T01:04:39.469Z,75.90
2023-04-27T01:05:39.654Z,75.59
2023-04-27T01:06:39.404Z,75.38
2023-04-27T01:07:39.962Z,75.21
2023-04-27T01:08:39.282Z,75.15
2023-04-27T01:09:39.418Z,74.91
2023-04-27T01:10:40.192Z,74.67
2023-04-27T01:11:39.684Z,74.59
2023-04-27T01:12:39.939Z,74.46
2023-04-27T01:13:40.814Z,74.58
2023-04-27T01:14:40.269Z,74.89
2023-04-27T01:15:39.934Z,75.04
2023-04-27T01:16:39.666Z,75.23
2023-04-27T01:17:40.067Z,75.32
2023-04-27T01:18:39.019Z,75.33
2023-04-27T01:19:39.361Z,75.36
2023-04-27T01:20:39.321Z,75.51
2023-04-27T01:21:39.611Z,75.88
2023-04-27T01:22:39.510Z,76.22
2023-04-27T01:23:39.377Z,76.33
2023-04-27T01:24:39.142Z,76.34
2023-04-27T01:25:39.277Z,76.30
2023-04-27T01:26:39.274Z,76.31
2023-04-27T01:27:39.214Z,76.45
2023-04-27T01:28:39.806Z,76.57
2023-04-27T01:29:39.791Z,76.63
2023-04-27T01:30:39.486Z,76.56
2023-04-27T01:31:39.335Z,76.39
2023-04-27T01:32:39.404Z,76.39
2023-04-27T01:33:39.582Z,76.57
2023-04-27T01:34:39.315Z,76.56
2023-04-27T01:35:40.175Z,76.64
2023-04-27T01:36:39.061Z,76.62
2023-04-27T01:37:39.342Z,76.55
2023-04-27T01:38:39.781Z,76.54
2023-04-27T01:39:39.699Z,76.42
2023-04-27T01:40:39.739Z,76.31
2023-04-27T01:41:39.684Z,76.41
2023-04-27T01:42:39.838Z,76.56
2023-04-27T01:43:39.987Z,76.66
2023-04-27T01:44:39.534Z,76.80
2023-04-27T01:45:40.030Z,76.88
2023-04-27T01:46:39.260Z,76.80
2023-04-27T01:47:39.683Z,76.79
2023-04-27T01:48:39.600Z,76.75
2023-04-27T01:49:39.474Z,76.76
2023-04-27T01:50:39.341Z,76.80
2023-04-27T01:51:39.627Z,76.70
2023-04-27T01:52:39.600Z,76.75
2023-04-27T01:53:39.597Z,76.85
2023-04-27T01:54:40.998Z,76.94
2023-04-27T01:55:39.263Z,76.99
2023-04-27T01:56:39.578Z,77.10
2023-04-27T01:57:39.539Z,77.04
2023-04-27T01:58:39.723Z,77.02
2023-04-27T01:59:39.457Z,76.96
2023-04-27T02:00:40.494Z,76.93
2023-04-27T02:01:39.938Z,76.92
2023-04-27T02:02:40.166Z,76.88
2023-04-27T02:03:39.500Z,76.86
2023-04-27T02:04:39.981Z,76.84
2023-04-27T02:05:39.487Z,76.84
2023-04-27T02:06:39.411Z,76.84
2023-04-27T02:07:39.168Z,76.86
2023-04-27T02:08:39.603Z,76.82
2023-04-27T02:09:39.706Z,76.91
2023-04-27T02:10:40.126Z,76.93
2023-04-27T02:11:39.075Z,76.95
2023-04-27T02:12:39.274Z,76.97
2023-04-27T02:13:39.340Z,77.05
2023-04-27T02:14:39.817Z,77.09
2023-04-27T02:15:39.866Z,77.11
2023-04-27T02:16:40.129Z,77.19
2023-04-27T02:17:39.452Z,77.29
2023-04-27T02:18:40.177Z,77.30
2023-04-27T02:19:39.491Z,77.30
2023-04-27T02:20:39.820Z,77.21
2023-04-27T02:21:39.635Z,77.38
2023-04-27T02:22:40.329Z,77.40
2023-04-27T02:23:39.764Z,77.40
2023-04-27T02:24:40.598Z,77.32
2023-04-27T02:25:44.970Z,77.40
2023-04-27T02:26:40.012Z,77.40
2023-04-27T02:27:39.980Z,77.48
2023-04-27T02:28:39.895Z,77.62
2023-04-27T02:29:39.714Z,77.65
2023-04-27T02:30:40.709Z,77.79
2023-04-27T02:31:40.107Z,77.89
2023-04-27T02:32:40.049Z,77.93
2023-04-27T02:33:40.944Z,77.95
2023-04-27T02:34:40.876Z,78.10
2023-04-27T02:35:45.164Z,77.97
2023-04-27T02:36:39.589Z,77.83
2023-04-27T02:37:39.271Z,77.95
2023-04-27T02:38:39.393Z,78.08
2023-04-27T02:39:39.169Z,78.03
2023-04-27T02:40:39.599Z,78.05
2023-04-27T02:41:40.428Z,78.07
2023-04-27T02:43:53.095Z,78.44
2023-04-27T02:44:39.193Z,78.48
2023-04-27T02:45:39.054Z,78.48
2023-04-27T02:46:39.334Z,78.54
2023-04-27T02:47:40.286Z,78.46
2023-04-27T02:48:39.528Z,78.48
2023-04-27T02:49:39.617Z,78.56
2023-04-27T02:50:40.244Z,78.62
2023-04-27T02:51:39.302Z,78.65
2023-04-27T02:52:39.408Z,78.67
2023-04-27T02:53:39.279Z,78.72
2023-04-27T02:54:39.153Z,78.76
2023-04-27T02:55:39.674Z,78.79
2023-04-27T02:56:39.871Z,78.78
2023-04-27T02:57:40.139Z,78.77
2023-04-27T02:58:39.282Z,78.76
2023-04-27T02:59:39.474Z,78.91
2023-04-27T03:00:40.740Z,79.04
2023-04-27T03:01:40.666Z,79.23
2023-04-27T03:02:40.799Z,79.27
2023-04-27T03:03:45.936Z,79.06
2023-04-27T03:04:39.755Z,78.98
2023-04-27T03:05:40.323Z,78.92
2023-04-27T03:06:39.616Z,78.86
2023-04-27T03:07:39.339Z,78.64
2023-04-27T03:08:39.560Z,78.46
2023-04-27T03:09:39.078Z,78.33
2023-04-27T03:10:39.827Z,78.31
2023-04-27T03:11:40.143Z,78.48
2023-04-27T03:12:39.607Z,78.57
2023-04-27T03:13:40.172Z,78.64
2023-04-27T03:14:39.732Z,78.62
2023-04-27T03:15:40.506Z,78.58
2023-04-27T03:16:39.579Z,78.47
2023-04-27T03:17:39.988Z,78.40
2023-04-27T03:18:39.419Z,78.33
2023-04-27T03:19:40.035Z,78.16
2023-04-27T03:20:39.285Z,78.03
2023-04-27T03:21:53.856Z,78.08
2023-04-27T03:22:40.308Z,78.12
2023-04-27T03:23:39.236Z,78.00
2023-04-27T03:24:39.540Z,78.10
2023-04-27T03:25:39.768Z,78.29
2023-04-27T03:26:40.025Z,78.38
2023-04-27T03:27:39.112Z,78.26
2023-04-27T03:28:39.359Z,78.33
2023-04-27T03:29:39.561Z,78.16
2023-04-27T03:30:40.878Z,77.92
2023-04-27T03:31:40.473Z,77.83
2023-04-27T03:32:39.709Z,77.83
2023-04-27T03:33:39.957Z,77.66
2023-04-27T03:34:40.533Z,77.49
2023-04-27T03:35:39.389Z,77.52
2023-04-27T03:36:39.776Z,77.35
2023-04-27T03:38:11.244Z,77.24
2023-04-27T03:38:43.757Z,77.22
2023-04-27T03:39:39.339Z,77.42
2023-04-27T03:40:39.426Z,77.73
2023-04-27T03:41:39.534Z,77.79
2023-04-27T03:42:40.297Z,77.90
2023-04-27T03:43:39.221Z,78.09
2023-04-27T03:44:38.998Z,78.24
2023-04-27T03:45:39.118Z,78.14
2023-04-27T03:46:39.420Z,77.85
2023-04-27T03:47:40.563Z,77.70
2023-04-27T03:48:40.149Z,77.60
2023-04-27T03:49:40.056Z,77.56
2023-04-27T03:50:39.479Z,77.48
2023-04-27T03:51:39.674Z,77.54
2023-04-27T03:52:40.233Z,77.59
2023-04-27T03:53:39.626Z,77.55
2023-04-27T03:54:39.637Z,77.64
2023-04-27T03:55:39.849Z,78.11
2023-04-27T03:56:40.437Z,78.45
2023-04-27T03:57:39.638Z,78.48
2023-04-27T03:58:39.825Z,78.37
2023-04-27T03:59:39.686Z,78.42
2023-04-27T04:00:40.884Z,78.37
2023-04-27T04:01:40.776Z,78.39
2023-04-27T04:02:40.125Z,78.36
2023-04-27T04:03:40.000Z,78.44
2023-04-27T04:04:40.279Z,78.49
2023-04-27T04:05:39.794Z,78.68
2023-04-27T04:06:40.071Z,78.82
2023-04-27T04:07:39.582Z,78.78
2023-04-27T04:08:40.457Z,78.73
2023-04-27T04:09:39.975Z,78.65
2023-04-27T04:10:40.159Z,78.52
2023-04-27T04:11:39.804Z,78.31
2023-04-27T04:12:40.465Z,78.20
2023-04-27T04:13:39.433Z,78.11
2023-04-27T04:14:39.623Z,78.09
2023-04-27T04:15:40.447Z,78.10
2023-04-27T04:16:39.972Z,78.15
2023-04-27T04:17:40.282Z,78.26
2023-04-27T04:18:39.492Z,78.27
2023-04-27T04:19:39.535Z,78.26
2023-04-27T04:20:40.023Z,78.23
2023-04-27T04:21:39.703Z,78.18
2023-04-27T04:22:40.495Z,78.18
2023-04-27T04:23:39.641Z,78.22
2023-04-27T04:24:40.214Z,78.23
2023-04-27T04:25:40.485Z,78.21
2023-04-27T04:26:40.373Z,78.26
2023-04-27T04:27:40.108Z,78.24
2023-04-27T04:28:39.477Z,78.27
2023-04-27T04:29:40.285Z,78.23
2023-04-27T04:30:39.651Z,78.18
2023-04-27T04:31:40.392Z,78.26
2023-04-27T04:32:39.825Z,78.36
2023-04-27T04:33:40.203Z,78.45
2023-04-27T04:34:39.914Z,78.57
2023-04-27T04:35:40.932Z,78.74
2023-04-27T04:36:41.090Z,78.86
2023-04-27T04:37:39.645Z,78.94
2023-04-27T04:38:40.082Z,79.02
2023-04-27T04:39:39.613Z,79.07
2023-04-27T04:40:39.904Z,79.17
2023-04-27T04:41:40.770Z,79.14
2023-04-27T04:42:40.393Z,79.05
2023-04-27T04:43:39.856Z,79
2023-04-27T04:44:40.430Z,78.98
2023-04-27T04:45:40.476Z,79.04
2023-04-27T04:46:39.780Z,79.09
2023-04-27T04:47:40.987Z,79.07
2023-04-27T04:48:39.830Z,79.05
2023-04-27T04:49:40.878Z,79.14
2023-04-27T04:50:40.584Z,79.07
2023-04-27T04:51:39.911Z,79.05
2023-04-27T04:52:40.520Z,79.12
2023-04-27T04:53:40.168Z,79.13
2023-04-27T04:54:39.325Z,79.19
2023-04-27T04:55:39.771Z,79.18
2023-04-27T04:56:40.543Z,79.05
2023-04-27T04:57:40.286Z,78.97
2023-04-27T04:58:40.204Z,78.90
2023-04-27T04:59:40.176Z,78.92
2023-04-27T05:00:45.937Z,79.05
2023-04-27T05:01:40.610Z,79.02
2023-04-27T05:02:41.156Z,78.96
2023-04-27T05:03:40.592Z,78.83
2023-04-27T05:04:40.345Z,78.86
2023-04-27T05:05:40.094Z,78.90
2023-04-27T05:06:53.453Z,78.86
2023-04-27T05:08:33.611Z,78.99
2023-04-27T05:08:49.672Z,79.02
2023-04-27T05:09:40.075Z,78.86
2023-04-27T05:10:40.201Z,78.91
2023-04-27T05:11:40.114Z,78.91
2023-04-27T05:12:39.875Z,78.89
2023-04-27T05:13:40.743Z,78.85
2023-04-27T05:14:40.253Z,78.81
2023-04-27T05:15:39.931Z,78.76
2023-04-27T05:16:40.010Z,78.73
2023-04-27T05:17:40.226Z,78.59
2023-04-27T05:18:40.083Z,78.50
2023-04-27T05:19:40.089Z,78.45
2023-04-27T05:20:40.020Z,78.46
2023-04-27T05:21:39.590Z,78.51
2023-04-27T05:22:40.576Z,78.43
2023-04-27T05:23:39.913Z,78.45
2023-04-27T05:24:40.865Z,78.52
2023-04-27T05:25:40.247Z,78.52
2023-04-27T05:26:39.595Z,78.37
2023-04-27T05:27:39.932Z,78.32
2023-04-27T05:28:40.564Z,78.43
2023-04-27T05:29:40.863Z,78.37
2023-04-27T05:30:46.533Z,78.28
2023-04-27T05:31:40.843Z,78.15
2023-04-27T05:32:40.797Z,78.25
2023-04-27T05:33:40.350Z,78.04
2023-04-27T05:34:39.995Z,77.91
2023-04-27T05:35:39.767Z,77.87
2023-04-27T05:37:03.106Z,77.83
2023-04-27T05:37:41.084Z,77.78
2023-04-27T05:38:48.119Z,77.69
2023-04-27T05:39:40.715Z,77.72
2023-04-27T05:40:45.771Z,77.67
2023-04-27T05:41:40.276Z,77.63
2023-04-27T05:42:39.665Z,77.72
2023-04-27T05:43:39.806Z,77.59
2023-04-27T05:44:39.425Z,77.63
2023-04-27T05:45:40.758Z,77.57
2023-04-27T05:47:12.849Z,77.57
2023-04-27T05:47:45.369Z,77.61
2023-04-27T05:48:39.824Z,77.64
2023-04-27T05:49:40.289Z,77.61
2023-04-27T05:50:39.750Z,77.59
2023-04-27T05:51:40.397Z,77.72
2023-04-27T05:52:39.896Z,77.71
2023-04-27T05:53:40.594Z,77.79
2023-04-27T05:54:39.964Z,77.76
2023-04-27T05:55:40.113Z,77.69
2023-04-27T05:56:39.839Z,77.63
2023-04-27T05:57:40.585Z,77.67
2023-04-27T05:58:39.850Z,77.74
2023-04-27T05:59:40.777Z,77.71
2023-04-27T06:00:41.184Z,77.63
2023-04-27T06:01:39.942Z,77.30
2023-04-27T06:02:59.879Z,77.08
2023-04-27T06:03:41.364Z,76.95
2023-04-27T06:04:59.200Z,76.89
2023-04-27T06:05:40.270Z,76.95
2023-04-27T06:07:11.330Z,77.06
2023-04-27T06:07:44.262Z,77.07
2023-04-27T06:08:39.882Z,76.97
2023-04-27T06:09:40.897Z,77.05
2023-04-27T06:10:41.144Z,77.17
2023-04-27T06:11:40.160Z,77.24
2023-04-27T06:12:40.401Z,77.34
2023-04-27T06:13:40.102Z,77.41
2023-04-27T06:14:39.725Z,77.22
2023-04-27T06:15:40.801Z,77.16
2023-04-27T06:16:41.124Z,76.98
2023-04-27T06:17:40.391Z,76.62
2023-04-27T06:18:40.580Z,76.62
2023-04-27T06:19:40.800Z,76.49
2023-04-27T06:20:40.714Z,76.46
2023-04-27T06:21:39.962Z,76.47
2023-04-27T06:22:40.704Z,76.52
2023-04-27T06:23:40.104Z,76.66
2023-04-27T06:24:39.994Z,76.82
2023-04-27T06:25:42.812Z,77.09
2023-04-27T06:26:39.933Z,77.05
2023-04-27T06:27:40.320Z,76.89
2023-04-27T06:28:40.089Z,76.83
2023-04-27T06:29:40.214Z,76.71
2023-04-27T06:30:40.905Z,76.77
2023-04-27T06:31:40.471Z,76.85
2023-04-27T06:32:40.828Z,76.99
2023-04-27T06:33:40.226Z,76.98
2023-04-27T06:34:40.335Z,77.15
2023-04-27T06:35:40.013Z,77.09
2023-04-27T06:36:39.761Z,76.83
2023-04-27T06:37:40.162Z,76.53
2023-04-27T06:38:39.540Z,76.41
2023-04-27T06:39:40.069Z,76.29
2023-04-27T06:40:40.388Z,76.21
2023-04-27T06:41:39.577Z,76.26
2023-04-27T06:42:40.151Z,76.19
2023-04-27T06:43:40.221Z,76.18
2023-04-27T06:44:40.166Z,76.16
2023-04-27T06:45:39.605Z,76.19
2023-04-27T06:46:40.299Z,76.32
2023-04-27T06:47:39.917Z,76.39
2023-04-27T06:48:40.313Z,76.40
2023-04-27T06:49:40.112Z,76.41
2023-04-27T06:50:39.815Z,76.26
2023-04-27T06:51:40.556Z,75.97
2023-04-27T06:52:39.602Z,75.90
2023-04-27T06:53:40.603Z,75.76
2023-04-27T06:54:40.280Z,75.70
2023-04-27T06:55:43.040Z,75.67
2023-04-27T06:56:40.021Z,75.62
2023-04-27T06:57:39.839Z,75.38
2023-04-27T06:58:40.498Z,75.21
2023-04-27T06:59:40.110Z,74.80
2023-04-27T07:00:41.407Z,74.79
2023-04-27T07:01:40.190Z,74.75
2023-04-27T07:02:41.225Z,74.70
2023-04-27T07:03:40.556Z,74.51
2023-04-27T07:04:40.314Z,74.46
2023-04-27T07:05:40.223Z,74.25
2023-04-27T07:06:40.062Z,74.23
2023-04-27T07:07:39.730Z,74.21
2023-04-27T07:08:40.507Z,74.15
2023-04-27T07:09:43.589Z,74.16
2023-04-27T07:10:39.652Z,74.29
2023-04-27T07:11:39.825Z,74.26
2023-04-27T07:12:40.543Z,74.25
2023-04-27T07:13:39.466Z,74.26
2023-04-27T07:14:40.086Z,74.26
2023-04-27T07:15:44.950Z,74.26
2023-04-27T07:16:40.847Z,74.23
2023-04-27T07:17:45.352Z,74.11
2023-04-27T07:18:42.067Z,73.95
2023-04-27T07:19:44.545Z,73.89
2023-04-27T07:20:40.398Z,73.82
2023-04-27T07:21:39.842Z,73.75
2023-04-27T07:22:40.575Z,73.68
2023-04-27T07:23:40.359Z,73.50
2023-04-27T07:24:39.628Z,73.49
2023-04-27T07:25:40.667Z,73.61
2023-04-27T07:26:40.228Z,73.62
2023-04-27T07:27:40.228Z,73.65
2023-04-27T07:28:39.880Z,73.64
2023-04-27T07:29:43.159Z,73.56
2023-04-27T07:30:40.329Z,73.36
2023-04-27T07:31:39.922Z,73.28
2023-04-27T07:32:40.868Z,73.32
2023-04-27T07:33:40.065Z,73.16
2023-04-27T07:34:52.154Z,73.19
2023-04-27T07:35:39.966Z,73.23
2023-04-27T07:36:40.268Z,73.29
2023-04-27T07:37:39.731Z,73.17
2023-04-27T07:38:39.940Z,72.89
2023-04-27T07:39:40.466Z,72.75
2023-04-27T07:40:42.650Z,72.49
2023-04-27T07:41:40.414Z,73
2023-04-27T07:42:40.346Z,73.27
2023-04-27T07:43:39.807Z,73.27
2023-04-27T07:44:40.227Z,72.94
2023-04-27T07:45:40.252Z,72.46
2023-04-27T07:46:40.031Z,72.32
2023-04-27T07:47:40.038Z,72.22
2023-04-27T07:48:40.056Z,72.13
2023-04-27T07:49:39.862Z,72.05
2023-04-27T07:50:41.201Z,72.04
2023-04-27T07:51:59.672Z,72.16
2023-04-27T07:52:41.360Z,72.18
2023-04-27T07:53:40.077Z,71.70
2023-04-27T07:54:39.633Z,71.51
2023-04-27T07:55:40.292Z,71.50
2023-04-27T07:56:39.851Z,71.02
2023-04-27T07:57:39.909Z,70.24
2023-04-27T07:58:40.440Z,70.44
2023-04-27T07:59:39.534Z,70.63
2023-04-27T08:00:41.107Z,70.81
2023-04-27T08:01:39.798Z,70.70
2023-04-27T08:02:40.853Z,70.36
2023-04-27T08:03:40.129Z,70.02
2023-04-27T08:04:40.959Z,69.89
2023-04-27T08:05:41.372Z,70.05
2023-04-27T08:06:41.302Z,70.15
2023-04-27T08:07:49.039Z,70.02
2023-04-27T08:08:40.275Z,69.93
2023-04-27T08:10:12.252Z,70.09
2023-04-27T08:10:45.371Z,70.17
2023-04-27T08:11:53.951Z,70.06
2023-04-27T08:12:40.596Z,69.37
2023-04-27T08:13:41.112Z,69.11
2023-04-27T08:14:40.060Z,69.08
2023-04-27T08:15:39.964Z,68.91
2023-04-27T08:16:40.663Z,68.70
2023-04-27T08:17:40.814Z,68.35
2023-04-27T08:18:40.868Z,68.29
2023-04-27T08:19:40.164Z,68.56
2023-04-27T08:20:40.625Z,68.98
2023-04-27T08:21:40.668Z,69.05
2023-04-27T08:22:40.776Z,68.86
2023-04-27T08:23:40.383Z,68.80
2023-04-27T08:24:39.886Z,69.08
2023-04-27T08:26:12.703Z,69.39
2023-04-27T08:26:46.087Z,69.46
2023-04-27T08:27:39.700Z,69.12
2023-04-27T08:28:40.141Z,68.69
2023-04-27T08:29:44.333Z,68.81
2023-04-27T08:30:40.261Z,68.69
2023-04-27T08:32:12.531Z,68.29
2023-04-27T08:32:44.655Z,68.06
2023-04-27T08:33:40.137Z,68.18
2023-04-27T08:34:39.911Z,67.88
2023-04-27T08:35:40.885Z,67.74
2023-04-27T08:36:40.632Z,67.43
2023-04-27T08:37:39.961Z,66.81
2023-04-27T08:38:41.175Z,66.30
2023-04-27T08:39:39.656Z,66.26
2023-04-27T08:40:40.516Z,66.19
2023-04-27T08:41:39.953Z,66.01
2023-04-27T08:42:40.555Z,66.16
2023-04-27T08:43:39.679Z,66.19
2023-04-27T08:44:40.510Z,65.83
2023-04-27T08:45:40.478Z,65.72
2023-04-27T08:46:41.146Z,65.53
2023-04-27T08:47:57.126Z,65.47
2023-04-27T08:48:39.847Z,65.66
2023-04-27T08:49:40.207Z,65.84
2023-04-27T08:50:40.042Z,65.75
2023-04-27T08:51:39.861Z,65.09
2023-04-27T08:52:40.577Z,64.73
2023-04-27T08:53:39.924Z,64.63
2023-04-27T08:54:40.764Z,65.01
2023-04-27T08:55:40.981Z,64.85
2023-04-27T08:56:39.951Z,65.12
2023-04-27T08:57:41.116Z,65.26
2023-04-27T08:58:39.570Z,65.54
2023-04-27T08:59:40.151Z,65.73
2023-04-27T09:00:41.440Z,65.37
2023-04-27T09:01:40.153Z,65.03
2023-04-27T09:02:39.534Z,64.74
2023-04-27T09:03:41.080Z,64.56
2023-04-27T09:04:49.803Z,64.31
2023-04-27T09:06:03.051Z,63.88
2023-04-27T09:06:48.724Z,63.54
2023-04-27T09:07:45.115Z,63.49
2023-04-27T09:08:43.110Z,63.21
2023-04-27T09:09:42.944Z,63.25
2023-04-27T09:10:43.031Z,63.09
2023-04-27T09:11:41.717Z,63.06
2023-04-27T09:12:45.733Z,63.09
2023-04-27T09:13:47.086Z,63.53
2023-04-27T09:14:45.910Z,63.53
2023-04-27T09:15:49.228Z,63.41
2023-04-27T09:16:43.533Z,63.41
2023-04-27T09:17:46.150Z,63.54
2023-04-27T09:18:41.914Z,63.36
2023-04-27T09:19:42.016Z,62.83
2023-04-27T09:20:40.806Z,62.22
2023-04-27T09:21:44.726Z,61.88
2023-04-27T09:22:42.885Z,62.00
2023-04-27T09:23:42.537Z,61.87
2023-04-27T09:24:40.780Z,61.22
2023-04-27T09:25:40.870Z,61.18
2023-04-27T09:26:46.315Z,61.19
2023-04-27T09:27:46.464Z,61.36
2023-04-27T09:28:42.084Z,61.07
2023-04-27T09:29:42.034Z,61.52
2023-04-27T09:30:40.298Z,61.59
2023-04-27T09:31:40.661Z,61.46
2023-04-27T09:32:46.510Z,61.37
2023-04-27T09:33:51.027Z,60.97
2023-04-27T09:34:42.537Z,60.57
2023-04-27T09:35:40.329Z,60.29
2023-04-27T09:36:43.320Z,59.97
2023-04-27T09:37:40.770Z,59.76
2023-04-27T09:38:40.345Z,59.75
2023-04-27T09:39:41.195Z,60.01
2023-04-27T09:40:40.885Z,59.98
2023-04-27T09:41:40.093Z,59.59
2023-04-27T09:42:39.670Z,59.22
2023-04-27T09:43:40.073Z,59.74
2023-04-27T09:44:40.035Z,60.29
2023-04-27T09:45:40.710Z,60.61
2023-04-27T09:46:40.062Z,60.99
2023-04-27T09:47:39.386Z,61.15
2023-04-27T09:48:39.399Z,61.01
2023-04-27T09:49:39.440Z,60.13
2023-04-27T09:50:39.857Z,59.77
2023-04-27T09:51:40.117Z,59.02
2023-04-27T09:52:40.016Z,58.40
2023-04-27T09:53:39.449Z,58.27
2023-04-27T09:54:39.748Z,58.18
2023-04-27T09:55:40.066Z,58.41
2023-04-27T09:56:39.700Z,58.68
2023-04-27T09:57:39.659Z,58.65
2023-04-27T09:58:40.780Z,58.56
2023-04-27T09:59:40.447Z,57.95
2023-04-27T10:00:54.991Z,57.93
2023-04-27T10:01:39.672Z,57.99
2023-04-27T10:02:52.557Z,58.40
2023-04-27T10:03:41.369Z,58.90
2023-04-27T10:04:41.869Z,59.31
2023-04-27T10:05:41.322Z,59.52
2023-04-27T10:06:39.328Z,59.71
2023-04-27T10:07:39.355Z,59.72
2023-04-27T10:08:39.420Z,59.87
2023-04-27T10:09:39.531Z,60.49
2023-04-27T10:10:40.106Z,60.36
2023-04-27T10:11:39.472Z,59.38
2023-04-27T10:12:39.893Z,59.66
2023-04-27T10:13:40.268Z,59.86
2023-04-27T10:14:39.917Z,60.51
2023-04-27T10:15:40.350Z,60.77
2023-04-27T10:16:40.167Z,60.88
2023-04-27T10:17:39.635Z,60.86
2023-04-27T10:18:41.091Z,60.31
2023-04-27T10:19:40.659Z,60.33
2023-04-27T10:20:39.819Z,60.23
2023-04-27T10:21:39.836Z,60.13
2023-04-27T10:22:39.988Z,60.13
2023-04-27T10:23:39.203Z,60.08
2023-04-27T10:24:38.963Z,59.61
2023-04-27T10:25:40.841Z,59.04
2023-04-27T10:26:40.457Z,58.71
2023-04-27T10:27:40.277Z,58.44
2023-04-27T10:28:39.821Z,58.47
2023-04-27T10:29:39.469Z,58.55
2023-04-27T10:30:39.884Z,58.68
2023-04-27T10:31:40.444Z,58.20
2023-04-27T10:32:39.361Z,57.67
2023-04-27T10:33:39.661Z,57.68
2023-04-27T10:34:39.895Z,57.46
2023-04-27T10:35:40.326Z,57.06
2023-04-27T10:36:53.476Z,56.88
2023-04-27T10:37:39.669Z,56.76
2023-04-27T10:38:39.734Z,56.70
2023-04-27T10:39:55.159Z,56.59
2023-04-27T10:40:39.203Z,56.33
2023-04-27T10:41:39.334Z,56.45
2023-04-27T10:42:39.561Z,56.78
2023-04-27T10:43:40.542Z,56.94
2023-04-27T10:44:40.516Z,56.91
2023-04-27T10:45:41.492Z,56.94
2023-04-27T10:46:54.825Z,56.99
2023-04-27T10:47:41.550Z,56.62
2023-04-27T10:48:40.682Z,56.39
2023-04-27T10:49:40.295Z,56.13
2023-04-27T10:50:40.571Z,55.74
2023-04-27T10:51:43.063Z,55.38
2023-04-27T10:52:41.377Z,55.41
2023-04-27T10:53:44.349Z,55.63
2023-04-27T10:54:40.425Z,56.02
2023-04-27T10:55:41.590Z,56.33
2023-04-27T10:57:00.181Z,56.29
2023-04-27T10:57:40.556Z,56.46
2023-04-27T10:58:49.318Z,56.45
2023-04-27T10:59:41.179Z,56
2023-04-27T11:00:41.329Z,55.69
2023-04-27T11:01:41.012Z,55.70
2023-04-27T11:02:40.614Z,55.94
2023-04-27T11:03:41.368Z,55.97
2023-04-27T11:04:42.581Z,55.84
2023-04-27T11:05:42.343Z,55.70
2023-04-27T11:06:40.427Z,56.06
2023-04-27T11:07:40.880Z,56.09
2023-04-27T11:08:41.007Z,56.33
2023-04-27T11:09:41.139Z,56.91
2023-04-27T11:10:40.680Z,56.21
2023-04-27T11:11:41.479Z,56.33
2023-04-27T11:12:42.368Z,56.46
2023-04-27T11:13:42.528Z,56.44
2023-04-27T11:14:40.357Z,56.06
2023-04-27T11:15:41.465Z,55.84
2023-04-27T11:16:43.362Z,55.81
2023-04-27T11:17:41.316Z,56.22
2023-04-27T11:19:40.745Z,56.36
2023-04-27T11:20:41.274Z,56.36
2023-04-27T11:21:40.277Z,56.30
2023-04-27T11:22:40.134Z,56.09
2023-04-27T11:23:41.072Z,56.03
2023-04-27T11:24:40.589Z,56.17
2023-04-27T11:25:41.229Z,56.36
2023-04-27T11:26:41.217Z,55.84
2023-04-27T11:27:40.349Z,55.54
2023-04-27T11:28:41.051Z,55.85
2023-04-27T11:29:40.875Z,55.79
2023-04-27T11:30:41.310Z,55.84
2023-04-27T11:31:40.845Z,55.85
2023-04-27T11:32:41.558Z,55.91
2023-04-27T11:33:41.117Z,56.13
2023-04-27T11:34:40.300Z,56.03
2023-04-27T11:35:40.926Z,55.78
2023-04-27T11:36:41.165Z,55.62
2023-04-27T11:37:40.337Z,55.71
2023-04-27T11:38:40.591Z,55.86
2023-04-27T11:39:40.752Z,55.67
2023-04-27T11:40:43.507Z,55.71
2023-04-27T11:41:41.972Z,56.11
2023-04-27T11:42:41.472Z,55.97
2023-04-27T11:43:41.683Z,55.63
2023-04-27T11:44:43.313Z,55.37
2023-04-27T11:45:42.847Z,55.12
2023-04-27T11:46:42.779Z,55.37
2023-04-27T11:47:42.070Z,55.68
2023-04-27T11:48:40.710Z,56.13
2023-04-27T11:49:41.054Z,56.01
2023-04-27T11:50:40.881Z,55.49
2023-04-27T11:51:41.285Z,55.17
2023-04-27T11:52:40.696Z,55.29
2023-04-27T11:53:40.540Z,55.84
2023-04-27T11:54:41.233Z,55.69
2023-04-27T11:55:40.571Z,55.45
2023-04-27T11:56:41.010Z,55.26
2023-04-27T11:57:40.863Z,55.08
2023-04-27T11:59:27.214Z,54.70
2023-04-27T11:59:46.816Z,54.68
2023-04-27T12:00:42.052Z,55.07
2023-04-27T12:01:53.999Z,55.25
2023-04-27T12:02:41.668Z,55.47
2023-04-27T12:03:42.010Z,55.68
2023-04-27T12:04:40.848Z,55.73
2023-04-27T12:05:41.640Z,55.5
2023-04-27T12:06:48.924Z,55.40
2023-04-27T12:07:41.635Z,55.04
2023-04-27T12:08:41.305Z,54.93
2023-04-27T12:09:40.373Z,54.80
2023-04-27T12:10:40.546Z,54.72
2023-04-27T12:11:41.102Z,54.69
2023-04-27T12:12:40.593Z,55.04
2023-04-27T12:13:41.028Z,55.36
2023-04-27T12:14:40.448Z,55.34
2023-04-27T12:15:41.181Z,55.13
2023-04-27T12:16:39.887Z,54.63
2023-04-27T12:17:40.845Z,54.22
2023-04-27T12:18:40.829Z,54.36
2023-04-27T12:19:40.473Z,54.73
2023-04-27T12:20:40.805Z,55.07
2023-04-27T12:21:41.295Z,54.90
2023-04-27T12:22:40.495Z,54.18
2023-04-27T12:23:40.451Z,53.84
2023-04-27T12:24:40.142Z,53.93
2023-04-27T12:25:40.496Z,54.25
2023-04-27T12:26:40.225Z,54.71
2023-04-27T12:27:40.459Z,54.73
2023-04-27T12:28:40.045Z,54.83
2023-04-27T12:29:39.103Z,54.81
2023-04-27T12:30:41.340Z,54.94
2023-04-27T12:31:43.179Z,54.20
2023-04-27T12:32:40.478Z,53.61
2023-04-27T12:33:40.381Z,53.77
2023-04-27T12:34:40.543Z,53.97
2023-04-27T12:35:54.904Z,54.39
2023-04-27T12:36:41.377Z,54.55
2023-04-27T12:37:42.986Z,54.31
2023-04-27T12:38:41.928Z,54.04
2023-04-27T12:39:43.970Z,53.83
2023-04-27T12:40:42.761Z,54.22
2023-04-27T12:41:41.820Z,53.90
2023-04-27T12:42:42.482Z,53.14
2023-04-27T12:43:42.982Z,53.05
2023-04-27T12:44:42.248Z,53.25
2023-04-27T12:45:41.934Z,53.63
2023-04-27T12:46:42.695Z,53.86
2023-04-27T12:48:16.877Z,54.02
2023-04-27T12:48:48.590Z,54.22
2023-04-27T12:49:41.036Z,54.48
2023-04-27T12:50:41.717Z,55.02
2023-04-27T12:51:41.213Z,56.06
2023-04-27T12:52:41.269Z,56.15
2023-04-27T12:53:46.688Z,56.08
2023-04-27T12:54:42.186Z,55.25
2023-04-27T12:55:47.435Z,55.59